Latest Weather Observations for Port Fairy

IDV60801

Issued at 6:02 am EDT Sunday 1 February 2015 (issued every 30 minutes, with the page automatically refreshed every 10 minutes)

About weather observations | Map of weather stations | Latest weather observations for VIC | Other Formats
Station Details ID: 090175 Name: PORT FAIRY AWS Lat: -38.39 Lon: 142.23 Height: 10.0 m
Data from the previous 72 hours. | See also: Recent months at Port Fairy
Date/Time
EDT
Temp
°C
App
Temp
°C
Dew
Point
Rel
Hum
%
Delta-T
°C
Wind Press
QNH
hPa
Press
MSL
hPa
Rain
since 9 am
mm
Dir
 
Spd
km/h
Gust
km/h
Spd
kts
Gust
kts
01/06:00am 14.5 8.2 8.9 69 2.8 SSE 32 39 17 21 1014.7 1014.7 0.0
01/05:30am 14.7 10.3 10.3 75 2.3 S 24 37 13 20 1014.6 1014.6 0.0
01/05:00am 14.6 9.4 9.0 69 2.8 S 26 41 14 22 1014.6 1014.6 0.0
01/04:30am 14.6 9.4 8.8 68 2.9 S 26 35 14 19 1014.7 1014.7 0.0
01/04:00am 14.8 9.6 8.7 67 3.1 S 26 39 14 21 1014.9 1014.9 0.0
01/03:30am 14.7 9.6 9.3 70 2.8 S 26 41 14 22 1015.0 1015.0 0.0
01/03:00am 14.7 9.7 10.9 78 2.0 S 28 41 15 22 1015.2 1015.2 0.0
01/02:30am 14.7 11.0 10.3 75 2.3 S 20 28 11 15 1015.4 1015.4 0.0
01/02:00am 15.0 10.0 9.6 70 2.8 S 26 39 14 21 1015.6 1015.6 0.0
01/01:30am 15.0 10.6 9.1 68 3.0 S 22 32 12 17 1015.8 1015.8 0.0
01/01:00am 15.1 10.9 9.7 70 2.8 S 22 33 12 18 1015.9 1015.9 0.0
01/12:30am 15.0 9.3 8.5 65 3.3 S 28 39 15 21 1016.0 1016.0 0.0
01/12:00am 15.3 11.3 10.3 72 2.6 S 22 33 12 18 1016.0 1016.0 0.0
 
Date/Time
EDT
Temp
°C
App
Temp
°C
Dew
Point
Rel
Hum
%
Delta-T
°C
Wind Press
QNH
hPa
Press
MSL
hPa
Rain
since 9 am
mm
Dir
 
Spd
km/h
Gust
km/h
Spd
kts
Gust
kts
31/11:30pm 15.2 10.4 8.9 66 3.2 S 24 35 13 19 1016.1 1016.1 0.0
31/11:00pm 15.3 9.6 8.5 64 3.4 S 28 35 15 19 1016.2 1016.2 0.0
31/10:30pm 15.4 11.0 8.9 65 3.3 S 22 30 12 16 1016.3 1016.3 0.0
31/10:00pm 15.4 10.9 8.4 63 3.5 S 22 32 12 17 1016.3 1016.3 0.0
31/09:30pm 15.3 10.6 9.2 67 3.1 S 24 32 13 17 1016.1 1016.1 0.0
31/09:00pm 15.3 10.8 9.9 70 2.8 S 24 33 13 18 1015.9 1015.9 0.0
31/08:30pm 15.3 10.5 8.8 65 3.3 S 24 37 13 20 1015.8 1015.8 0.0
31/08:00pm 15.4 11.0 10.4 72 2.6 S 24 35 13 19 1015.4 1015.4 0.0
31/07:30pm 15.4 10.4 10.8 74 2.4 S 28 39 15 21 1015.4 1015.4 0.0
31/07:00pm 15.8 10.9 11.4 75 2.4 S 28 35 15 19 1015.2 1015.2 0.0
31/06:30pm 15.7 10.2 11.7 77 2.2 S 32 39 17 21 1015.0 1015.0 0.0
31/06:00pm 15.8 10.2 11.6 76 2.3 SSW 32 41 17 22 1015.2 1015.2 0.0
31/05:30pm 15.6 10.2 12.2 80 1.9 S 32 43 17 23 1015.2 1015.2 0.0
31/05:00pm 16.0 11.2 11.8 76 2.3 SSW 28 35 15 19 1015.4 1015.4 0.0
31/04:30pm 16.6 11.6 12.2 75 2.4 SSW 30 41 16 22 1015.6 1015.6 0.0
31/04:00pm 16.2 10.9 11.4 73 2.6 S 30 39 16 21 1015.5 1015.5 0.0
31/03:30pm 16.1 12.0 11.3 73 2.6 S 24 37 13 20 1015.6 1015.6 0.0
31/03:00pm 15.3 11.0 12.2 82 1.7 S 26 41 14 22 1015.6 1015.6 0.0
31/02:30pm 16.9 12.2 12.0 73 2.7 SSW 28 37 15 20 1015.6 1015.6 0.0
31/02:00pm 17.3 12.8 11.3 68 3.2 SSW 26 39 14 21 1015.5 1015.5 0.0
31/01:30pm 17.0 12.0 12.3 74 2.6 SSW 30 43 16 23 1015.5 1015.5 0.0
31/01:00pm 16.7 11.9 11.6 72 2.8 SSW 28 39 15 21 1015.6 1015.6 0.0
31/12:30pm 16.5 13.3 11.9 74 2.5 S 20 32 11 17 1016.0 1016.0 0.0
31/12:00pm 16.6 11.8 11.5 72 2.8 S 28 41 15 22 1015.7 1015.7 0.0
31/11:30am 16.4 11.4 11.1 71 2.8 S 28 37 15 20 1015.6 1015.6 0.0
31/11:00am 16.4 11.3 10.7 69 3.0 S 28 37 15 20 1015.5 1015.5 0.0
31/10:30am 15.5 11.4 11.5 77 2.2 SSE 24 37 13 20 1015.5 1015.5 0.0
31/10:00am 15.8 11.1 12.0 78 2.1 SSE 28 39 15 21 1015.3 1015.3 0.0
31/09:30am 15.9 10.7 10.4 70 2.9 SSE 28 37 15 20 1015.1 1015.1 0.0
31/09:00am 16.1 10.5 10.2 68 3.1 SSE 30 43 16 23 1014.9 1014.9 0.0
31/08:30am 16.0 10.7 11.2 73 2.6 SSE 30 43 16 23 1014.7 1014.7 0.0
31/08:00am 15.9 9.8 9.8 67 3.2 SSE 32 44 17 24 1014.5 1014.5 0.0
31/07:30am 15.9 9.9 10.0 68 3.1 SSE 32 43 17 23 1014.3 1014.3 0.0
31/07:00am 15.6 9.1 9.1 65 3.3 SSE 33 44 18 24 1014.3 1014.3 0.0
31/06:30am 15.7 9.7 10.2 70 2.9 SSE 32 41 17 22 1014.4 1014.4 0.0
31/06:00am 15.7 10.0 11.1 74 2.5 SSE 32 41 17 22 1014.6 1014.6 0.0
31/05:30am 15.2 9.7 11.8 80 1.8 S 32 43 17 23 1014.4 1014.4 0.0
31/05:00am 15.9 10.2 11.1 73 2.6 S 32 43 17 23 1014.1 1014.1 0.0
31/04:30am 15.6 9.9 11.8 78 2.1 SSE 33 44 18 24 1014.0 1014.0 0.0
31/04:00am 15.9 10.6 11.3 74 2.5 S 30 43 16 23 1013.9 1013.9 0.0
31/03:30am 15.9 10.2 11.9 77 2.2 SSE 33 43 18 23 1014.1 1014.1 0.0
31/03:00am 15.2 9.4 11.6 79 1.9 S 33 48 18 26 1014.4 1014.4 0.0
31/02:30am 15.8 9.9 11.2 74 2.5 S 33 43 18 23 1014.5 1014.5 0.0
31/02:00am 16.0 10.5 11.8 76 2.3 SSE 32 43 17 23 1014.7 1014.7 0.0
31/01:30am 15.9 9.6 10.9 72 2.7 SSE 35 44 19 24 1014.9 1014.9 0.0
31/01:00am 15.8 10.6 11.6 76 2.3 S 30 43 16 23 1015.1 1015.1 0.0
31/12:30am 15.9 10.8 11.9 77 2.2 SSE 30 37 16 20 1015.3 1015.3 0.0
31/12:00am 16.2 11.1 10.5 69 3.0 S 28 39 15 21 1015.5 1015.5 0.0
 
Date/Time
EDT
Temp
°C
App
Temp
°C
Dew
Point
Rel
Hum
%
Delta-T
°C
Wind Press
QNH
hPa
Press
MSL
hPa
Rain
since 9 am
mm
Dir
 
Spd
km/h
Gust
km/h
Spd
kts
Gust
kts
30/11:30pm 15.9 11.0 11.3 74 2.5 SSE 28 35 15 19 1015.7 1015.7 0.0
30/11:00pm 15.6 10.1 11.8 78 2.1 S 32 44 17 24 1015.9 1015.9 0.0
30/10:30pm 15.9 10.4 11.7 76 2.3 SSE 32 41 17 22 1015.9 1015.9 0.0
30/10:00pm 15.9 10.4 11.7 76 2.3 SSE 32 39 17 21 1016.0 1016.0 0.0
30/09:30pm 15.9 10.9 12.3 79 2.0 SSE 30 39 16 21 1016.0 1016.0 0.0
30/09:00pm 15.5 12.1 12.6 83 1.6 SSE 22 35 12 19 1015.8 1015.8 0.0
30/08:30pm 16.1 11.3 11.7 75 2.4 SSE 28 35 15 19 1015.7 1015.7 0.0
30/08:00pm 16.2 10.5 11.2 72 2.7 SSE 32 39 17 21 1015.7 1015.7 0.0
30/07:30pm 17.1 12.2 11.4 69 3.1 SSE 28 39 15 21 1015.6 1015.6 0.0
30/07:00pm 17.5 13.0 11.3 67 3.4 SSE 26 32 14 17 1015.5 1015.5 0.0
30/06:30pm 17.8 13.5 10.9 64 3.7 SSE 24 32 13 17 1015.5 1015.5 0.0
30/06:00pm 17.8 12.8 10.9 64 3.7 SSE 28 33 15 18 1015.7 1015.7 0.0
30/05:30pm 17.6 12.2 10.9 65 3.6 SSE 30 37 16 20 1015.9 1015.9 0.0
30/05:00pm 18.3 14.2 11.4 64 3.8 SSE 24 33 13 18 1015.9 1015.9 0.0
30/04:30pm 18.6 14.3 10.9 61 4.2 S 24 32 13 17 1016.2 1016.2 0.0
30/04:00pm 19.5 16.3 12.0 62 4.2 S 20 26 11 14 1016.3 1016.3 0.0
30/03:30pm 18.5 15.1 11.3 63 3.9 S 20 28 11 15 1016.6 1016.6 0.0
30/03:00pm 19.6 16.7 12.4 63 4.0 S 19 30 10 16 1016.9 1016.9 0.0
30/02:30pm 18.6 15.2 11.4 63 3.9 S 20 28 11 15 1017.3 1017.3 0.0
30/02:00pm 18.4 15.2 11.9 66 3.6 S 20 30 11 16 1017.6 1017.6 0.0
30/01:30pm 18.6 15.0 11.7 64 3.8 S 22 30 12 16 1017.8 1017.8 0.0
30/01:00pm 18.9 15.3 11.7 63 4.0 S 22 30 12 16 1017.9 1017.9 0.0
30/12:30pm 19.3 16.7 12.1 63 4.0 S 17 24 9 13 1018.1 1018.1 0.0
30/12:00pm 18.4 15.4 11.9 66 3.6 S 19 28 10 15 1018.3 1018.3 0.0
30/11:30am 18.9 16.3 11.9 64 3.9 S 17 26 9 14 1018.5 1018.5 0.0
30/11:00am 17.9 14.9 10.5 62 4.0 S 17 24 9 13 1018.6 1018.6 0.0
30/10:30am 17.7 14.7 10.8 64 3.7 S 17 24 9 13 1018.7 1018.7 0.0
30/10:00am 18.7 15.7 12.0 65 3.7 SSE 19 24 10 13 1018.7 1018.7 0.0
30/09:30am 17.9 15.1 11.5 66 3.5 S 17 22 9 12 1018.6 1018.6 0.0
30/09:00am 17.2 14.7 11.0 67 3.3 SSE 15 20 8 11 1018.7 1018.7 0.0
30/08:30am 16.4 12.8 10.5 68 3.1 SSE 20 26 11 14 1018.8 1018.8 0.0
30/08:00am 16.0 12.3 10.1 68 3.1 SSE 20 24 11 13 1018.6 1018.6 0.0
30/07:30am 15.8 13.7 11.0 73 2.6 SSE 13 19 7 10 1018.2 1018.2 0.0
30/07:00am 14.9 12.5 10.1 73 2.5 SSE 13 19 7 10 1018.1 1018.1 0.0
30/06:30am 14.5 12.4 9.9 74 2.4 SSE 11 17 6 9 1017.9 1017.9 0.0
30/06:00am 14.6 12.2 10.0 74 2.4 SSE 13 17 7 9 1017.7 1017.7 0.0
30/05:30am 14.4 11.9 9.6 73 2.5 SE 13 17 7 9 1017.5 1017.5 0.0
30/05:00am 14.7 11.6 10.3 75 2.3 SE 17 20 9 11 1017.5 1017.5 0.0
30/04:30am 14.8 11.2 10.0 73 2.5 SE 19 24 10 13 1017.9 1017.9 0.0
30/04:00am 14.8 11.7 10.2 74 2.4 SE 17 24 9 13 1018.0 1018.0 0.0
30/03:30am 14.8 11.7 10.2 74 2.4 SSE 17 24 9 13 1018.3 1018.3 0.0
30/03:00am 14.5 12.1 9.9 74 2.4 SE 13 19 7 10 1018.4 1018.4 0.0
30/02:30am 14.6 11.7 9.6 72 2.6 SE 15 22 8 12 1018.7 1018.7 0.0
30/02:00am 14.7 11.4 9.7 72 2.6 SE 17 22 9 12 1019.0 1019.0 0.0
30/01:30am 14.8 11.2 10.0 73 2.5 SE 19 24 10 13 1019.2 1019.2 0.0
30/01:00am 14.9 11.2 10.1 73 2.5 SE 20 26 11 14 1019.6 1019.6 0.0
30/12:30am 15.1 11.5 10.5 74 2.4 SE 20 28 11 15 1019.7 1019.7 0.0
30/12:00am 14.9 11.2 10.1 73 2.5 SE 20 28 11 15 1019.8 1019.8 0.0
 
Date/Time
EDT
Temp
°C
App
Temp
°C
Dew
Point
Rel
Hum
%
Delta-T
°C
Wind Press
QNH
hPa
Press
MSL
hPa
Rain
since 9 am
mm
Dir
 
Spd
km/h
Gust
km/h
Spd
kts
Gust
kts
29/11:30pm 15.0 11.6 10.6 75 2.3 SE 19 26 10 14 1020.0 1020.0 0.0
29/11:00pm 15.3 10.9 10.5 73 2.5 SE 24 30 13 16 1020.2 1020.2 0.0
29/10:30pm 15.6 11.0 11.0 74 2.5 SE 26 33 14 18 1020.3 1020.3 0.0
29/10:00pm 15.7 10.4 11.3 75 2.4 SE 30 39 16 21 1020.2 1020.2 0.0
29/09:30pm 16.1 11.0 11.9 76 2.3 SE 30 39 16 21 1020.0 1020.0 0.0
29/09:00pm 16.1 11.7 11.7 75 2.4 SE 26 35 14 19 1020.0 1020.0 0.0
29/08:30pm 16.2 11.2 10.9 71 2.8 SE 28 39 15 21 1019.9 1019.9 0.0
29/08:00pm 16.8 12.0 10.2 65 3.5 SE 26 39 14 21 1019.8 1019.8 0.0
29/07:30pm 17.3 12.1 10.4 64 3.7 SE 28 37 15 20 1019.9 1019.9 0.0
29/07:00pm 17.8 12.7 10.7 63 3.8 SE 28 37 15 20 1019.8 1019.8 0.0
29/06:30pm 18.3 12.4 10.4 60 4.2 SE 32 41 17 22 1019.7 1019.7 0.0
29/06:00pm 18.8 13.3 10.6 59 4.4 SE 30 41 16 22 1019.8 1019.8 0.0
29/05:30pm 18.9 13.7 11.5 62 4.1 SE 30 39 16 21 1020.0 1020.0 0.0
29/05:00pm 19.2 13.9 11.3 60 4.3 SE 30 39 16 21 1020.2 1020.2 0.0
29/04:30pm 19.7 14.9 11.7 60 4.4 SE 28 37 15 20 1020.3 1020.3 0.0
29/04:00pm 19.8 14.6 11.6 59 4.5 SE 30 39 16 21 1020.7 1020.7 0.0
29/03:30pm 19.7 14.0 11.2 58 4.7 SE 32 41 17 22 1020.9 1020.9 0.0
29/03:00pm 20.2 15.3 12.7 62 4.2 SE 30 37 16 20 1021.2 1021.2 0.0
29/02:30pm 20.5 15.6 12.5 60 4.5 SE 30 39 16 21 1021.2 1021.2 0.0
29/02:00pm 20.2 14.9 12.4 61 4.4 SE 32 39 17 21 1021.3 1021.3 0.0
29/01:30pm 21.1 16.7 13.0 60 4.6 SE 28 35 15 19 1021.5 1021.5 0.0
29/01:00pm 20.6 16.5 12.6 60 4.5 SE 26 33 14 18 1021.8 1021.8 0.0
29/12:30pm 20.7 17.4 12.7 60 4.5 SE 22 28 12 15 1021.9 1021.9 0.0
29/12:00pm 20.1 17.1 13.6 66 3.7 SSE 22 28 12 15 1022.1 1022.1 0.0
29/11:30am 20.1 17.5 13.8 67 3.6 SSE 20 28 11 15 1022.1 1022.1 0.0
29/11:00am 20.3 18.1 14.4 69 3.4 SE 19 26 10 14 1022.2 1022.2 0.0
29/10:30am 19.2 16.4 13.2 68 3.4 SE 20 26 11 14 1022.2 1022.2 0.0
29/10:00am 18.8 16.3 13.4 71 3.1 SE 19 24 10 13 1022.1 1022.1 0.0
29/09:30am 18.0 15.0 12.7 71 3.0 SE 20 24 11 13 1022.2 1022.2 0.0
29/09:00am 17.9 15.2 13.0 73 2.7 SE 19 26 10 14 1022.1 1022.1 0.0
29/08:30am 17.1 14.1 12.6 75 2.5 SE 20 28 11 15 1021.8 1021.8 0.0
29/08:00am 16.3 13.5 12.7 79 2.0 SE 19 24 10 13 1021.6 1021.6 0.0
29/07:30am 15.9 13.4 12.3 79 2.0 SE 17 24 9 13 1021.2 1021.2 0.0
29/07:00am 15.2 12.6 12.0 81 1.7 SE 17 22 9 12 1021.0 1021.0 0.0
29/06:30am 15.2 12.2 12.0 81 1.7 ESE 19 22 10 12 1020.7 1020.7 0.0

Other Formats:

Comma delimited format used in spreadsheet applications
http://www.bom.gov.au/fwo/IDV60801/IDV60801.94830.axf

JavaScript Object Notation format (JSON) in row-major order
http://www.bom.gov.au/fwo/IDV60801/IDV60801.94830.json